createdAt,value
2017-11-21T00:01:36.948Z,16.30
2017-11-21T00:04:04.552Z,14.67
2017-11-21T00:06:32.176Z,15.30
2017-11-21T00:09:00.341Z,14.97
2017-11-21T00:11:28.128Z,16.73
2017-11-21T00:13:55.726Z,14.97
2017-11-21T00:16:23.297Z,13.93
2017-11-21T00:18:50.926Z,15.13
2017-11-21T00:21:18.589Z,15.37
2017-11-21T00:23:46.964Z,14.47
2017-11-21T00:26:15.330Z,13.73
2017-11-21T00:28:43.100Z,14.10
2017-11-21T00:31:10.687Z,13.27
2017-11-21T00:33:39.830Z,12.57
2017-11-21T00:36:07.432Z,12.93
2017-11-21T00:38:35.041Z,13.57
2017-11-21T00:41:02.624Z,14.17
2017-11-21T00:43:30.256Z,12.57
2017-11-21T00:45:57.835Z,13.53
2017-11-21T00:48:26.254Z,13.30
2017-11-21T00:50:54.735Z,12.87
2017-11-21T00:53:23.068Z,12.50
2017-11-21T00:55:50.680Z,12.80
2017-11-21T00:58:18.330Z,13.50
2017-11-21T01:00:45.894Z,13.07
2017-11-21T01:03:14.335Z,13.80
2017-11-21T01:05:43.074Z,12.83
2017-11-21T01:08:11.432Z,13.00
2017-11-21T01:10:39.835Z,12.77
2017-11-21T01:13:07.440Z,13.13
2017-11-21T01:15:35.321Z,12.70
2017-11-21T01:18:03.952Z,13.33
2017-11-21T01:20:31.573Z,12.40
2017-11-21T01:22:59.163Z,12.60
2017-11-21T01:25:27.498Z,13.10
2017-11-21T01:27:55.189Z,12.60
2017-11-21T01:30:22.979Z,12.90
2017-11-21T01:32:53.661Z,12.67
2017-11-21T01:35:21.235Z,12.77
2017-11-21T01:37:53.429Z,12.63
2017-11-21T01:40:21.763Z,13.10
2017-11-21T01:42:49.529Z,12.23
2017-11-21T01:45:17.304Z,12.53
2017-11-21T01:47:45.655Z,12.87
2017-11-21T01:50:13.242Z,12.37
2017-11-21T01:52:41.336Z,11.63
2017-11-21T01:55:08.953Z,11.83
2017-11-21T01:57:36.815Z,11.90
2017-11-21T02:00:04.407Z,10.90
2017-11-21T02:02:31.980Z,13.23
2017-11-21T02:04:59.592Z,11.50
2017-11-21T02:07:27.197Z,11.43
2017-11-21T02:09:54.902Z,12.40
2017-11-21T02:12:22.616Z,13.07
2017-11-21T02:14:50.196Z,12.40
2017-11-21T02:17:17.784Z,13.13
2017-11-21T02:19:45.396Z,13.53
2017-11-21T02:22:12.965Z,13.30
2017-11-21T02:24:40.569Z,12.77
2017-11-21T02:27:08.191Z,13.13
2017-11-21T02:29:35.747Z,12.90
2017-11-21T02:32:03.365Z,13.07
2017-11-21T02:34:31.160Z,13.03
2017-11-21T02:36:58.791Z,12.63
2017-11-21T02:39:26.359Z,13.80
2017-11-21T02:41:53.935Z,13.03
2017-11-21T02:44:21.500Z,13.43
2017-11-21T02:46:49.152Z,13.87
2017-11-21T02:49:16.720Z,14.17
2017-11-21T02:51:44.280Z,12.70
2017-11-21T02:54:11.895Z,12.87
2017-11-21T02:56:39.466Z,12.53
2017-11-21T02:59:07.064Z,12.47
2017-11-21T03:01:34.637Z,13.20
2017-11-21T03:04:02.707Z,14.07
2017-11-21T03:06:30.372Z,13.67
2017-11-21T03:08:57.947Z,14.13
2017-11-21T03:11:25.733Z,13.23
2017-11-21T03:13:53.684Z,13.30
2017-11-21T03:16:21.765Z,14.63
2017-11-21T03:18:49.363Z,14.63
2017-11-21T03:21:28.719Z,15.33
2017-11-21T03:24:08.308Z,14.80
2017-11-21T03:26:39.413Z,14.53
2017-11-21T03:29:06.989Z,13.20
2017-11-21T03:31:34.979Z,13.77
2017-11-21T03:34:02.544Z,14.20
2017-11-21T03:36:30.516Z,14.73
2017-11-21T03:38:58.930Z,14.40
2017-11-21T03:41:26.493Z,13.97
2017-11-21T03:43:54.108Z,13.93
2017-11-21T03:46:21.725Z,13.77
2017-11-21T03:48:49.300Z,14.40
2017-11-21T03:51:16.892Z,13.23
2017-11-21T03:53:44.621Z,13.23
2017-11-21T03:56:12.233Z,14.63
2017-11-21T03:58:39.840Z,13.13
2017-11-21T04:01:09.113Z,12.10
2017-11-21T04:03:36.705Z,13.00
2017-11-21T04:06:04.292Z,13.27
2017-11-21T04:08:31.895Z,12.87
2017-11-21T04:10:59.724Z,14.40
2017-11-21T04:13:27.737Z,13.47
2017-11-21T04:15:55.302Z,13.60
2017-11-21T04:18:22.878Z,13.63
2017-11-21T04:20:50.508Z,13.33
2017-11-21T04:23:18.380Z,13.57
2017-11-21T04:25:45.942Z,13.03
2017-11-21T04:28:13.914Z,13.30
2017-11-21T04:30:41.650Z,12.97
2017-11-21T04:33:10.077Z,12.60
2017-11-21T04:35:37.656Z,12.97
2017-11-21T04:38:06.845Z,12.67
2017-11-21T04:40:35.196Z,14.67
2017-11-21T04:43:02.875Z,13.50
2017-11-21T04:45:30.432Z,13.23
2017-11-21T04:47:58.012Z,13.20
2017-11-21T04:50:25.624Z,13.63
2017-11-21T04:52:53.384Z,13.53
2017-11-21T04:55:21.012Z,13.17
2017-11-21T04:57:48.589Z,12.53
2017-11-21T05:00:16.965Z,14.13
2017-11-21T05:02:44.548Z,14.67
2017-11-21T05:05:12.375Z,15.33
2017-11-21T05:07:41.058Z,14.70
2017-11-21T05:10:08.754Z,17.90
2017-11-21T05:12:36.323Z,17.17
2017-11-21T05:15:03.932Z,15.00
2017-11-21T05:17:31.511Z,19.90
2017-11-21T05:19:59.090Z,19.50
2017-11-21T05:22:26.716Z,18.63
2017-11-21T05:24:54.328Z,18.63
2017-11-21T05:27:22.287Z,21.33
2017-11-21T05:29:49.864Z,20.07
2017-11-21T05:32:17.533Z,17.17
2017-11-21T05:34:45.230Z,20.73
2017-11-21T05:37:12.813Z,19.37
2017-11-21T05:39:41.141Z,20.50
2017-11-21T05:42:08.842Z,18.23
2017-11-21T05:44:37.411Z,19.83
2017-11-21T05:47:05.021Z,18.80
2017-11-21T05:49:32.705Z,18.50
2017-11-21T05:52:01.119Z,18.10
2017-11-21T05:54:28.849Z,19.83
2017-11-21T05:56:56.428Z,18.97
2017-11-21T05:59:24.034Z,19.87
2017-11-21T06:01:52.422Z,23.93
2017-11-21T06:04:19.999Z,18.93
2017-11-21T06:06:47.636Z,22.80
2017-11-21T06:09:15.976Z,23.13
2017-11-21T06:11:43.659Z,23.73
2017-11-21T06:14:12.078Z,21.97
2017-11-21T06:16:39.688Z,21.43
2017-11-21T06:19:08.147Z,20.20
2017-11-21T06:21:36.001Z,19.27
2017-11-21T06:24:03.672Z,20.77
2017-11-21T06:26:31.361Z,20.50
2017-11-21T06:28:58.941Z,19.07
2017-11-21T06:31:27.808Z,18.43
2017-11-21T06:33:55.410Z,19.47
2017-11-21T06:36:23.745Z,20.33
2017-11-21T06:38:51.325Z,21.23
2017-11-21T06:41:19.224Z,19.67
2017-11-21T06:43:46.862Z,19.50
2017-11-21T06:46:14.432Z,19.13
2017-11-21T06:48:42.003Z,18.03
2017-11-21T06:51:09.611Z,17.77
2017-11-21T06:53:37.192Z,19.30
2017-11-21T06:56:05.041Z,19.10
2017-11-21T06:58:32.608Z,18.80
2017-11-21T07:01:00.242Z,19.17
2017-11-21T07:03:27.848Z,18.90
2017-11-21T07:05:55.807Z,20.83
2017-11-21T07:08:23.423Z,19.83
2017-11-21T07:10:51.113Z,16.73
2017-11-21T07:13:19.536Z,19.77
2017-11-21T07:15:47.825Z,19.90
2017-11-21T07:18:15.471Z,19.67
2017-11-21T07:20:43.043Z,17.80
2017-11-21T07:23:10.603Z,21.07
2017-11-21T07:25:38.500Z,17.43
2017-11-21T07:28:06.192Z,17.23
2017-11-21T07:30:33.924Z,18.70
2017-11-21T07:33:01.514Z,20.30
2017-11-21T07:35:29.089Z,16.67
2017-11-21T07:37:56.897Z,20.53
2017-11-21T07:40:24.700Z,16.13
2017-11-21T07:42:52.295Z,19.80
2017-11-21T07:45:21.350Z,19.20
2017-11-21T07:47:48.928Z,17.10
2017-11-21T07:50:16.497Z,16.83
2017-11-21T07:52:44.073Z,16.90
2017-11-21T07:55:11.881Z,18.90
2017-11-21T07:57:39.896Z,18.93
2017-11-21T08:00:07.572Z,15.97
2017-11-21T08:02:35.211Z,18.03
2017-11-21T08:05:02.918Z,16.07
2017-11-21T08:07:30.484Z,16.87
2017-11-21T08:09:58.221Z,17.73
2017-11-21T08:12:25.984Z,15.77
2017-11-21T08:14:54.324Z,15.93
2017-11-21T08:17:21.883Z,20.23
2017-11-21T08:19:49.539Z,16.73
2017-11-21T08:22:17.097Z,16.63
2017-11-21T08:24:44.948Z,16.60
2017-11-21T08:27:13.371Z,15.47
2017-11-21T08:29:40.999Z,16.97
2017-11-21T08:32:08.839Z,16.63
2017-11-21T08:34:36.615Z,16.80
2017-11-21T08:37:04.237Z,15.77
2017-11-21T08:39:32.667Z,13.93
2017-11-21T08:42:00.285Z,14.37
2017-11-21T08:44:28.629Z,13.97
2017-11-21T08:46:57.837Z,13.20
2017-11-21T08:49:25.455Z,16.33
2017-11-21T08:51:53.088Z,14.70
2017-11-21T08:54:20.685Z,14.20
2017-11-21T08:56:48.388Z,15.63
2017-11-21T08:59:16.022Z,14.57
2017-11-21T09:01:43.780Z,13.17
2017-11-21T09:04:11.792Z,15.60
2017-11-21T09:06:40.029Z,14.40
2017-11-21T09:09:08.006Z,13.77
2017-11-21T09:11:35.604Z,15.20
2017-11-21T09:14:03.184Z,14.30
2017-11-21T09:16:31.674Z,13.27
2017-11-21T09:19:00.586Z,15.97
2017-11-21T09:21:28.281Z,14.90
2017-11-21T09:23:56.447Z,13.97
2017-11-21T09:26:24.016Z,15.37
2017-11-21T09:28:51.600Z,14.40
2017-11-21T09:31:19.964Z,19.07
2017-11-21T09:33:47.668Z,15.77
2017-11-21T09:36:15.216Z,14.93
2017-11-21T09:38:42.962Z,12.63
2017-11-21T09:41:12.144Z,14.00
2017-11-21T09:43:39.735Z,11.57
2017-11-21T09:46:08.553Z,11.97
2017-11-21T09:48:36.603Z,14.20
2017-11-21T09:51:04.974Z,12.87
2017-11-21T09:53:32.670Z,14.50
2017-11-21T09:56:00.249Z,14.33
2017-11-21T09:58:27.825Z,15.23
2017-11-21T10:00:55.382Z,13.83
2017-11-21T10:03:23.358Z,15.20
2017-11-21T10:05:50.974Z,15.60
2017-11-21T10:08:18.537Z,15.27
2017-11-21T10:10:46.633Z,15.90
2017-11-21T10:13:14.281Z,15.83
2017-11-21T10:15:42.271Z,13.60
2017-11-21T10:18:09.934Z,15.40
2017-11-21T10:20:37.499Z,15.60
2017-11-21T10:23:05.103Z,15.40
2017-11-21T10:25:32.700Z,15.77
2017-11-21T10:28:00.358Z,14.07
2017-11-21T10:30:28.839Z,14.73
2017-11-21T10:32:56.456Z,15.40
2017-11-21T10:35:24.068Z,16.00
2017-11-21T10:37:53.186Z,14.50
2017-11-21T10:40:20.816Z,15.70
2017-11-21T10:42:48.501Z,15.37
2017-11-21T10:45:16.123Z,14.80
2017-11-21T10:47:43.702Z,15.17
2017-11-21T10:50:11.386Z,15.13
2017-11-21T10:52:38.952Z,13.40
2017-11-21T10:55:06.575Z,15.53
2017-11-21T10:57:34.200Z,16.37
2017-11-21T11:00:02.824Z,13.30
2017-11-21T11:02:30.504Z,15.63
2017-11-21T11:04:58.206Z,14.00
2017-11-21T11:07:25.816Z,13.13
2017-11-21T11:09:53.386Z,13.37
2017-11-21T11:12:21.699Z,13.00
2017-11-21T11:14:49.285Z,13.50
2017-11-21T11:17:16.862Z,12.83
2017-11-21T11:19:44.425Z,13.73
2017-11-21T11:22:12.018Z,12.83
2017-11-21T11:24:40.354Z,12.37
2017-11-21T11:27:08.033Z,12.30
2017-11-21T11:29:35.670Z,11.57
2017-11-21T11:32:03.260Z,12.30
2017-11-21T11:34:30.889Z,11.23
2017-11-21T11:36:58.509Z,11.27
2017-11-21T11:39:26.137Z,12.47
2017-11-21T11:41:53.701Z,12.43
2017-11-21T11:44:21.465Z,11.57
2017-11-21T11:46:49.068Z,11.90
2017-11-21T11:49:16.655Z,11.33
2017-11-21T11:51:44.962Z,10.53
2017-11-21T11:54:12.573Z,11.13
2017-11-21T11:56:41.802Z,11.03
2017-11-21T11:59:09.369Z,9.27
2017-11-21T12:01:40.367Z,10.20
2017-11-21T12:04:08.032Z,10.87
2017-11-21T12:06:35.636Z,23.47
2017-11-21T12:09:03.242Z,10.67
2017-11-21T12:11:30.872Z,12.90
2017-11-21T12:13:58.525Z,12.33
2017-11-21T12:16:26.140Z,23.93
2017-11-21T12:18:56.782Z,12.63
2017-11-21T12:21:25.430Z,12.00
2017-11-21T12:23:56.647Z,12.70
2017-11-21T12:26:24.389Z,11.40
2017-11-21T12:28:52.012Z,14.73
2017-11-21T12:31:19.586Z,17.37
2017-11-21T12:33:47.245Z,12.60
2017-11-21T12:36:14.836Z,12.17
2017-11-21T12:38:42.426Z,11.77
2017-11-21T12:41:10.076Z,12.43
2017-11-21T12:43:37.652Z,11.33
2017-11-21T12:46:05.445Z,12.23
2017-11-21T12:48:33.072Z,12.17
2017-11-21T12:51:00.721Z,11.97
2017-11-21T12:53:28.319Z,12.27
2017-11-21T12:55:55.918Z,12.37
2017-11-21T12:58:24.677Z,12.67
2017-11-21T13:00:52.289Z,12.03
2017-11-21T13:03:19.889Z,12.97
2017-11-21T13:05:48.321Z,13.13
2017-11-21T13:08:15.894Z,13.50
2017-11-21T13:10:43.473Z,13.57
2017-11-21T13:13:11.137Z,14.13
2017-11-21T13:15:38.712Z,12.53
2017-11-21T13:18:06.355Z,16.70
2017-11-21T13:20:33.931Z,13.07
2017-11-21T13:23:01.638Z,12.80
2017-11-21T13:25:29.359Z,12.83
2017-11-21T13:27:57.570Z,12.07
2017-11-21T13:30:26.196Z,13.43
2017-11-21T13:32:53.789Z,12.67
2017-11-21T13:35:21.532Z,12.33
2017-11-21T13:37:49.156Z,12.93
2017-11-21T13:40:17.562Z,11.97
2017-11-21T13:42:45.884Z,11.47
2017-11-21T13:45:14.282Z,11.83
2017-11-21T13:47:41.856Z,13.87
2017-11-21T13:50:09.625Z,12.33
2017-11-21T13:52:37.674Z,12.80
2017-11-21T13:55:06.478Z,12.07
2017-11-21T13:57:34.045Z,14.60
2017-11-21T14:00:03.295Z,11.90
2017-11-21T14:02:51.279Z,12.37
2017-11-21T14:05:30.790Z,12.30
2017-11-21T14:07:59.225Z,11.17
2017-11-21T14:10:26.974Z,12.33
2017-11-21T14:12:55.471Z,11.13
2017-11-21T14:15:23.336Z,10.83
2017-11-21T14:17:50.941Z,11.93
2017-11-21T14:20:18.646Z,11.37
2017-11-21T14:22:46.237Z,16.27
2017-11-21T14:25:13.844Z,11.67
2017-11-21T14:27:42.116Z,12.00
2017-11-21T14:30:09.802Z,11.70
2017-11-21T14:32:37.398Z,11.43
2017-11-21T14:35:05.020Z,11.50
2017-11-21T14:37:32.590Z,13.37
2017-11-21T14:40:00.172Z,12.20
2017-11-21T14:42:27.825Z,13.50
2017-11-21T14:44:55.699Z,13.83
2017-11-21T14:47:23.354Z,14.67
2017-11-21T14:49:51.105Z,15.03
2017-11-21T14:52:18.753Z,15.23
2017-11-21T14:54:46.363Z,14.23
2017-11-21T14:57:14.055Z,14.47
2017-11-21T14:59:42.639Z,14.70
2017-11-21T15:02:10.454Z,14.43
2017-11-21T15:04:38.076Z,14.37
2017-11-21T15:07:06.610Z,13.07
2017-11-21T15:09:34.247Z,13.03
2017-11-21T15:12:01.872Z,11.67
2017-11-21T15:14:29.443Z,13.03
2017-11-21T15:16:57.142Z,12.93
2017-11-21T15:19:24.741Z,12.37
2017-11-21T15:21:52.420Z,13.67
2017-11-21T15:24:20.987Z,14.03
2017-11-21T15:26:48.600Z,13.97
2017-11-21T15:29:16.184Z,13.40
2017-11-21T15:31:43.971Z,13.77
2017-11-21T15:34:11.546Z,12.77
2017-11-21T15:36:39.176Z,12.40
2017-11-21T15:39:06.827Z,10.10
2017-11-21T15:41:34.410Z,14.03
2017-11-21T15:44:01.999Z,12.37
2017-11-21T15:46:30.959Z,11.97
2017-11-21T15:48:58.546Z,12.00
2017-11-21T15:51:26.698Z,12.47
2017-11-21T15:53:54.278Z,11.73
2017-11-21T15:56:22.633Z,11.47
2017-11-21T15:58:50.269Z,13.40
2017-11-21T16:01:17.855Z,13.30
2017-11-21T16:03:45.463Z,13.10
2017-11-21T16:06:13.064Z,13.37
2017-11-21T16:08:40.863Z,11.17
2017-11-21T16:11:08.492Z,10.40
2017-11-21T16:13:36.094Z,13.83
2017-11-21T16:16:03.723Z,10.60
2017-11-21T16:18:31.321Z,12.17
2017-11-21T16:20:58.927Z,12.13
2017-11-21T16:23:26.645Z,13.50
2017-11-21T16:25:54.292Z,12.90
2017-11-21T16:28:21.869Z,13.93
2017-11-21T16:30:50.820Z,13.07
2017-11-21T16:33:19.511Z,13.83
2017-11-21T16:35:47.220Z,11.97
2017-11-21T16:38:14.972Z,15.10
2017-11-21T16:40:42.557Z,13.80
2017-11-21T16:43:10.122Z,14.03
2017-11-21T16:45:37.707Z,14.63
2017-11-21T16:48:05.276Z,12.67
2017-11-21T16:50:32.894Z,14.20
2017-11-21T16:53:00.488Z,14.23
2017-11-21T16:55:28.065Z,13.10
2017-11-21T16:57:55.832Z,14.57
2017-11-21T17:00:23.433Z,15.30
2017-11-21T17:02:51.607Z,17.07
2017-11-21T17:05:19.224Z,12.97
2017-11-21T17:07:46.785Z,17.13
2017-11-21T17:10:14.396Z,15.40
2017-11-21T17:12:42.087Z,15.33
2017-11-21T17:15:09.883Z,14.80
2017-11-21T17:17:37.457Z,16.67
2017-11-21T17:20:06.507Z,14.33
2017-11-21T17:22:34.073Z,16.90
2017-11-21T17:25:01.634Z,14.67
2017-11-21T17:27:29.245Z,14.10
2017-11-21T17:29:57.594Z,15.47
2017-11-21T17:32:25.168Z,16.53
2017-11-21T17:34:53.838Z,15.53
2017-11-21T17:37:21.427Z,14.43
2017-11-21T17:39:49.786Z,13.53
2017-11-21T17:42:18.333Z,14.57
2017-11-21T17:44:45.896Z,13.67
2017-11-21T17:47:13.554Z,13.10
2017-11-21T17:49:41.172Z,13.13
2017-11-21T17:52:08.783Z,13.63
2017-11-21T17:54:36.404Z,12.63
2017-11-21T17:57:03.981Z,13.73
2017-11-21T17:59:31.729Z,12.97
2017-11-21T18:01:59.453Z,13.10
2017-11-21T18:04:27.091Z,11.77
2017-11-21T18:06:54.750Z,12.20
2017-11-21T18:09:22.398Z,13.17
2017-11-21T18:11:49.981Z,11.67
2017-11-21T18:14:17.759Z,11.30
2017-11-21T18:16:45.401Z,11.33
2017-11-21T18:19:14.190Z,12.67
2017-11-21T18:21:41.807Z,11.07
2017-11-21T18:24:09.892Z,11.00
2017-11-21T18:26:37.526Z,13.43
2017-11-21T18:29:05.862Z,12.27
2017-11-21T18:31:33.535Z,12.97
2017-11-21T18:34:01.193Z,13.07
2017-11-21T18:36:29.155Z,13.30
2017-11-21T18:38:56.800Z,12.07
2017-11-21T18:41:25.630Z,12.93
2017-11-21T18:43:53.473Z,11.93
2017-11-21T18:46:21.133Z,13.57
2017-11-21T18:48:49.009Z,11.57
2017-11-21T18:51:16.648Z,10.20
2017-11-21T18:53:44.301Z,14.77
2017-11-21T18:56:11.990Z,9.97
2017-11-21T18:58:39.605Z,10.57
2017-11-21T19:01:07.261Z,13.70
2017-11-21T19:03:34.871Z,10.43
2017-11-21T19:06:02.475Z,13.13
2017-11-21T19:08:30.065Z,13.07
2017-11-21T19:10:57.641Z,12.97
2017-11-21T19:13:25.395Z,13.80
2017-11-21T19:15:52.959Z,14.00
2017-11-21T19:18:20.688Z,15.40
2017-11-21T19:20:48.285Z,12.50
2017-11-21T19:23:15.870Z,11.40
2017-11-21T19:25:43.986Z,9.53
2017-11-21T19:28:11.604Z,11.00
2017-11-21T19:30:39.227Z,12.13
2017-11-21T19:33:06.829Z,10.53
2017-11-21T19:35:38.038Z,12.63
2017-11-21T19:38:05.748Z,9.30
2017-11-21T19:40:33.686Z,12.07
2017-11-21T19:43:03.169Z,13.10
2017-11-21T19:45:31.731Z,11.57
2017-11-21T19:48:00.795Z,12.03
2017-11-21T19:50:28.409Z,11.17
2017-11-21T19:52:56.037Z,11.73
2017-11-21T19:55:23.657Z,11.27
2017-11-21T19:57:51.348Z,12.87
2017-11-21T20:00:19.014Z,11.13
2017-11-21T20:02:46.944Z,8.23
2017-11-21T20:05:14.796Z,10.23
2017-11-21T20:07:42.810Z,9.60
2017-11-21T20:10:11.201Z,9.60
2017-11-21T20:12:39.860Z,10.10
2017-11-21T20:15:07.829Z,9.87
2017-11-21T20:17:35.829Z,9.07
2017-11-21T20:20:05.163Z,9.00
2017-11-21T20:22:32.813Z,10.43
2017-11-21T20:25:01.187Z,11.60
2017-11-21T20:27:28.792Z,10.73
2017-11-21T20:29:56.455Z,6.10
2017-11-21T20:32:24.008Z,8.60
2017-11-21T20:34:51.582Z,8.57
2017-11-21T20:37:19.165Z,10.97
2017-11-21T20:39:47.781Z,9.17
2017-11-21T20:42:16.912Z,11.47
2017-11-21T20:44:44.858Z,11.13
2017-11-21T20:47:12.968Z,11.07
2017-11-21T20:49:41.028Z,11.77
2017-11-21T20:52:08.954Z,12.33
2017-11-21T20:54:36.963Z,12.90
2017-11-21T20:57:05.056Z,11.20
2017-11-21T20:59:32.632Z,11.00
2017-11-21T21:02:00.956Z,13.50
2017-11-21T21:04:28.557Z,9.50
2017-11-21T21:06:56.876Z,11.20
2017-11-21T21:09:26.218Z,8.90
2017-11-21T21:11:53.811Z,11.83
2017-11-21T21:14:21.401Z,12.37
2017-11-21T21:16:49.871Z,19.97
2017-11-21T21:19:17.737Z,13.37
2017-11-21T21:21:45.777Z,11.60
2017-11-21T21:24:13.443Z,11.20
2017-11-21T21:26:42.221Z,10.63
2017-11-21T21:29:11.155Z,10.83
2017-11-21T21:31:38.883Z,9.27
2017-11-21T21:34:06.611Z,6.33
2017-11-21T21:36:34.251Z,11.80
2017-11-21T21:39:04.279Z,9.80
2017-11-21T21:41:33.317Z,9.10
2017-11-21T21:44:00.962Z,10.60
2017-11-21T21:46:28.587Z,10.93
2017-11-21T21:48:56.170Z,10.03
2017-11-21T21:51:25.125Z,6.87
2017-11-21T21:53:53.981Z,11.07
2017-11-21T21:56:21.713Z,8.90
2017-11-21T21:58:49.539Z,9.70
2017-11-21T22:01:17.918Z,7.57
2017-11-21T22:03:47.797Z,10.10
2017-11-21T22:06:15.427Z,8.73
2017-11-21T22:08:43.009Z,10.03
2017-11-21T22:11:10.613Z,11.70
2017-11-21T22:13:38.180Z,9.17
2017-11-21T22:16:06.296Z,10.60
2017-11-21T22:18:33.904Z,9.63
2017-11-21T22:21:01.646Z,10.13
2017-11-21T22:23:29.694Z,10.37
2017-11-21T22:25:58.629Z,8.67
2017-11-21T22:28:26.477Z,10.50
2017-11-21T22:30:54.905Z,10.13
2017-11-21T22:33:23.311Z,9.50
2017-11-21T22:35:51.018Z,8.53
2017-11-21T22:38:19.379Z,10.27
2017-11-21T22:40:48.475Z,9.20
2017-11-21T22:43:16.443Z,10.80
2017-11-21T22:45:44.045Z,9.90
2017-11-21T22:48:11.591Z,9.50
2017-11-21T22:50:40.021Z,9.90
2017-11-21T22:53:07.592Z,10.97
2017-11-21T22:55:35.589Z,10.10
2017-11-21T22:58:03.372Z,9.10
2017-11-21T23:00:30.987Z,9.80
2017-11-21T23:02:59.103Z,12.13
2017-11-21T23:05:27.257Z,9.30
2017-11-21T23:07:55.541Z,10.23
2017-11-21T23:10:23.098Z,9.40
2017-11-21T23:12:50.674Z,9.90
2017-11-21T23:15:18.271Z,12.43
2017-11-21T23:17:45.887Z,10.73
2017-11-21T23:20:13.510Z,10.23
2017-11-21T23:22:41.307Z,10.57
2017-11-21T23:25:09.020Z,10.43
2017-11-21T23:27:36.636Z,8.83
2017-11-21T23:30:04.262Z,10.57
2017-11-21T23:32:32.765Z,11.57
2017-11-21T23:35:00.669Z,9.53
2017-11-21T23:37:28.573Z,9.63
2017-11-21T23:39:56.444Z,10.03
2017-11-21T23:42:24.950Z,9.97
2017-11-21T23:44:52.793Z,11.07
2017-11-21T23:47:22.018Z,8.83
2017-11-21T23:49:50.085Z,10.93
2017-11-21T23:52:18.877Z,12.33
2017-11-21T23:54:46.643Z,10.43
2017-11-21T23:57:14.941Z,8.37
2017-11-21T23:59:42.992Z,8.73
